createdAt,value
2023-03-19T00:00:23.410Z,1.7
2023-03-19T00:02:54.044Z,1.65
2023-03-19T00:05:24.186Z,1.67
2023-03-19T00:07:54.455Z,1.7
2023-03-19T00:10:24.840Z,1.69
2023-03-19T00:12:55.670Z,1.78
2023-03-19T00:15:26.369Z,1.78
2023-03-19T00:17:57.050Z,1.73
2023-03-19T00:20:27.372Z,1.69
2023-03-19T00:22:57.752Z,1.75
2023-03-19T00:25:27.761Z,1.83
2023-03-19T00:27:57.984Z,1.82
2023-03-19T00:30:28.768Z,1.84
2023-03-19T00:32:58.996Z,1.77
2023-03-19T00:35:29.083Z,1.78
2023-03-19T00:37:59.752Z,1.75
2023-03-19T00:40:29.765Z,1.81
2023-03-19T00:43:00.642Z,1.84
2023-03-19T00:45:31.642Z,1.86
2023-03-19T00:48:01.909Z,1.86
2023-03-19T00:50:32.539Z,1.88
2023-03-19T00:53:02.898Z,1.84
2023-03-19T00:55:33.410Z,1.85
2023-03-19T00:58:03.441Z,1.9
2023-03-19T01:00:35.377Z,1.88
2023-03-19T01:03:04.522Z,1.88
2023-03-19T01:05:35.274Z,1.84
2023-03-19T01:08:06.007Z,1.86
2023-03-19T01:10:36.538Z,1.88
2023-03-19T01:13:09.668Z,1.91
2023-03-19T01:15:37.177Z,1.96
2023-03-19T01:18:07.845Z,2.04
2023-03-19T01:20:38.646Z,2.05
2023-03-19T01:23:08.688Z,2.06
2023-03-19T01:25:39.438Z,2.03
2023-03-19T01:28:09.879Z,2.02
2023-03-19T01:30:40.419Z,2.01
2023-03-19T01:33:10.591Z,1.96
2023-03-19T01:35:41.338Z,1.96
2023-03-19T01:38:11.346Z,1.92
2023-03-19T01:40:41.603Z,1.93
2023-03-19T01:43:11.739Z,1.87
2023-03-19T01:45:42.279Z,1.94
2023-03-19T01:48:12.318Z,1.93
2023-03-19T01:50:43.127Z,1.96
2023-03-19T01:53:13.414Z,1.97
2023-03-19T01:55:43.836Z,1.92
2023-03-19T01:58:13.968Z,1.73
2023-03-19T02:00:44.548Z,1.76
2023-03-19T02:03:14.755Z,1.66
2023-03-19T02:05:44.791Z,1.64
2023-03-19T02:08:15.071Z,1.68
2023-03-19T02:10:45.394Z,1.73
2023-03-19T02:13:15.798Z,1.79
2023-03-19T02:15:46.223Z,1.93
2023-03-19T02:18:16.744Z,2.1
2023-03-19T02:20:46.774Z,2.2
2023-03-19T02:23:17.013Z,2.14
2023-03-19T02:25:47.527Z,2.14
2023-03-19T02:28:17.876Z,1.97
2023-03-19T02:30:48.340Z,1.82
2023-03-19T02:33:18.953Z,1.8
2023-03-19T02:35:48.886Z,1.79
2023-03-19T02:38:19.386Z,1.78
2023-03-19T02:40:49.896Z,1.74
2023-03-19T02:43:20.745Z,1.75
2023-03-19T02:45:51.497Z,1.72
2023-03-19T02:48:21.773Z,1.75
2023-03-19T02:50:52.067Z,1.74
2023-03-19T02:53:22.815Z,1.72
2023-03-19T02:55:52.880Z,1.61
2023-03-19T02:58:22.912Z,1.61
2023-03-19T03:00:53.215Z,1.66
2023-03-19T03:03:23.198Z,1.65
2023-03-19T03:05:53.227Z,1.7
2023-03-19T03:08:23.500Z,1.67
2023-03-19T03:10:53.578Z,1.77
2023-03-19T03:13:24.274Z,1.74
2023-03-19T03:15:54.576Z,1.7
2023-03-19T03:18:25.301Z,1.74
2023-03-19T03:20:55.912Z,1.76
2023-03-19T03:23:25.862Z,1.77
2023-03-19T03:25:56.196Z,1.7
2023-03-19T03:28:26.787Z,1.71
2023-03-19T03:30:56.951Z,1.71
2023-03-19T03:33:27.735Z,1.76
2023-03-19T03:35:57.906Z,1.83
2023-03-19T03:38:28.354Z,1.79
2023-03-19T03:40:58.741Z,1.82
2023-03-19T03:43:28.627Z,1.89
2023-03-19T03:45:59.034Z,1.84
2023-03-19T03:48:29.110Z,1.83
2023-03-19T03:50:59.988Z,1.84
2023-03-19T03:53:30.245Z,1.85
2023-03-19T03:56:00.464Z,1.88
2023-03-19T03:58:30.731Z,1.87
2023-03-19T04:01:01.001Z,1.93
2023-03-19T04:03:31.341Z,1.85
2023-03-19T04:06:01.821Z,1.85
2023-03-19T04:08:32.487Z,1.77
2023-03-19T04:11:03.042Z,1.92
2023-03-19T04:13:33.912Z,1.88
2023-03-19T04:16:04.449Z,1.88
2023-03-19T04:18:35.302Z,1.95
2023-03-19T04:21:05.583Z,1.97
2023-03-19T04:23:36.382Z,1.97
2023-03-19T04:26:06.626Z,1.93
2023-03-19T04:28:36.959Z,1.95
2023-03-19T04:31:07.492Z,1.94
2023-03-19T04:33:37.962Z,1.97
2023-03-19T04:36:08.006Z,1.98
2023-03-19T04:38:38.312Z,1.97
2023-03-19T04:41:08.793Z,1.93
2023-03-19T04:43:39.567Z,2.01
2023-03-19T04:46:10.340Z,2.01
2023-03-19T04:48:41.103Z,2.03
2023-03-19T04:51:11.994Z,2.04
2023-03-19T04:53:42.779Z,1.88
2023-03-19T04:56:13.107Z,1.91
2023-03-19T04:58:43.624Z,1.87
2023-03-19T05:01:13.820Z,1.58
2023-03-19T05:03:44.216Z,1.85
2023-03-19T05:06:14.939Z,1.87
2023-03-19T05:08:45.449Z,1.87
2023-03-19T05:11:16.232Z,1.84
2023-03-19T05:13:46.319Z,1.93
2023-03-19T05:16:16.867Z,1.89
2023-03-19T05:18:46.911Z,2.12
2023-03-19T05:21:16.940Z,2.02
2023-03-19T05:23:47.753Z,2
2023-03-19T05:26:18.383Z,1.93
2023-03-19T05:28:49.104Z,1.96
2023-03-19T05:31:19.515Z,1.84
2023-03-19T05:33:50.216Z,1.71
2023-03-19T05:36:20.970Z,1.74
2023-03-19T05:38:51.529Z,1.84
2023-03-19T05:41:22.190Z,1.77
2023-03-19T05:43:52.895Z,1.86
2023-03-19T05:46:23.784Z,1.95
2023-03-19T05:48:53.901Z,1.93
2023-03-19T05:51:24.522Z,2.09
2023-03-19T05:53:55.179Z,2.04
2023-03-19T05:56:25.464Z,1.98
2023-03-19T05:58:56.262Z,1.98
2023-03-19T06:01:26.556Z,1.99
2023-03-19T06:03:57.001Z,2.03
2023-03-19T06:06:27.473Z,2.06
2023-03-19T06:08:57.714Z,2.07
2023-03-19T06:11:27.918Z,2.08
2023-03-19T06:13:58.727Z,2.18
2023-03-19T06:16:28.993Z,2.16
2023-03-19T06:18:59.151Z,2.14
2023-03-19T06:21:29.890Z,2.03
2023-03-19T06:24:00.245Z,2.1
2023-03-19T06:26:30.925Z,1.92
2023-03-19T06:29:01.288Z,1.83
2023-03-19T06:31:32.220Z,1.89
2023-03-19T06:34:02.343Z,1.91
2023-03-19T06:36:33.189Z,1.92
2023-03-19T06:39:03.678Z,1.93
2023-03-19T06:41:34.585Z,2.04
2023-03-19T06:44:05.073Z,1.95
2023-03-19T06:46:36.073Z,1.93
2023-03-19T06:49:06.067Z,2
2023-03-19T06:51:36.251Z,2.02
2023-03-19T06:54:06.843Z,2.04
2023-03-19T06:56:37.673Z,2.02
2023-03-19T06:59:08.217Z,2
2023-03-19T07:01:39.024Z,1.98
2023-03-19T07:04:09.357Z,1.96
2023-03-19T07:06:39.271Z,1.94
2023-03-19T07:09:10.104Z,2
2023-03-19T07:11:40.340Z,2.14
2023-03-19T07:14:11.175Z,2.05
2023-03-19T07:16:41.216Z,2.08
2023-03-19T07:19:11.687Z,2.13
2023-03-19T07:21:41.952Z,2.15
2023-03-19T07:24:12.278Z,2.18
2023-03-19T07:26:42.886Z,2.18
2023-03-19T07:29:13.305Z,2.15
2023-03-19T07:31:43.886Z,2.13
2023-03-19T07:34:14.795Z,2.09
2023-03-19T07:36:45.024Z,2.24
2023-03-19T07:39:15.262Z,2.31
2023-03-19T07:41:46.142Z,2.41
2023-03-19T07:44:16.748Z,2.54
2023-03-19T07:46:46.911Z,2.53
2023-03-19T07:49:17.740Z,2.15
2023-03-19T07:51:48.299Z,2.05
2023-03-19T07:54:18.494Z,2.02
2023-03-19T07:56:48.533Z,2.04
2023-03-19T07:59:19.388Z,2.06
2023-03-19T08:01:49.578Z,2.05
2023-03-19T08:04:19.925Z,2.04
2023-03-19T08:06:50.106Z,1.9
2023-03-19T08:09:20.933Z,1.92
2023-03-19T08:11:50.961Z,1.8
2023-03-19T08:14:21.085Z,1.79
2023-03-19T08:16:51.286Z,1.82
2023-03-19T08:19:21.903Z,1.63
2023-03-19T08:21:55.467Z,1.63
2023-03-19T08:24:22.836Z,1.53
2023-03-19T08:26:52.856Z,1.48
2023-03-19T08:29:23.376Z,1.53
2023-03-19T08:31:53.955Z,1.51
2023-03-19T08:34:24.457Z,1.48
2023-03-19T08:36:54.494Z,1.44
2023-03-19T08:39:25.340Z,1.46
2023-03-19T08:41:55.605Z,1.46
2023-03-19T08:44:26.493Z,1.27
2023-03-19T08:46:57.280Z,1.26
2023-03-19T08:49:27.408Z,1.21
2023-03-19T08:51:57.874Z,1.19
2023-03-19T08:54:28.452Z,1.19
2023-03-19T08:56:58.925Z,1.23
2023-03-19T08:59:30.990Z,1.2
2023-03-19T09:02:00.113Z,1.23
2023-03-19T09:04:30.389Z,1.11
2023-03-19T09:07:00.653Z,1.07
2023-03-19T09:09:31.171Z,0.98
2023-03-19T09:12:01.568Z,1.02
2023-03-19T09:14:31.605Z,0.97
2023-03-19T09:17:01.867Z,0.98
2023-03-19T09:19:32.622Z,1
2023-03-19T09:22:03.351Z,1.06
2023-03-19T09:24:33.674Z,1.08
2023-03-19T09:27:04.044Z,1.07
2023-03-19T09:29:34.920Z,0.85
2023-03-19T09:32:05.453Z,0.84
2023-03-19T09:34:35.913Z,0.89
2023-03-19T09:37:06.315Z,0.82
2023-03-19T09:39:36.959Z,0.73
2023-03-19T09:42:07.683Z,0.75
2023-03-19T09:44:38.544Z,0.78
2023-03-19T09:47:08.755Z,0.7
2023-03-19T09:49:39.251Z,0.7
2023-03-19T09:52:09.644Z,0.7
2023-03-19T09:54:40.193Z,0.73
2023-03-19T09:57:12.214Z,0.74
2023-03-19T09:59:41.242Z,0.78
2023-03-19T10:02:11.240Z,0.77
2023-03-19T10:04:41.822Z,0.79
2023-03-19T10:07:12.492Z,0.7
2023-03-19T10:09:42.753Z,0.73
2023-03-19T10:12:12.924Z,0.68
2023-03-19T10:14:43.383Z,0.7
2023-03-19T10:17:13.858Z,0.76
2023-03-19T10:19:44.591Z,0.72
2023-03-19T10:22:14.808Z,0.71
2023-03-19T10:24:45.382Z,0.73
2023-03-19T10:27:16.304Z,0.77
2023-03-19T10:29:46.745Z,0.75
2023-03-19T10:32:17.206Z,0.73
2023-03-19T10:34:47.322Z,0.69
2023-03-19T10:37:17.993Z,0.75
2023-03-19T10:39:47.954Z,0.75
2023-03-19T10:42:18.244Z,0.79
2023-03-19T10:44:48.349Z,0.78
2023-03-19T10:47:18.754Z,0.81
2023-03-19T10:49:48.791Z,0.85
2023-03-19T10:52:19.405Z,0.83
2023-03-19T10:54:49.866Z,0.87
2023-03-19T10:57:20.013Z,0.83
2023-03-19T10:59:50.127Z,0.76
2023-03-19T11:02:20.358Z,0.78
2023-03-19T11:04:50.719Z,0.91
2023-03-19T11:07:21.188Z,0.75
2023-03-19T11:09:51.920Z,0.72
2023-03-19T11:12:22.308Z,0.68
2023-03-19T11:14:52.221Z,0.72
2023-03-19T11:17:22.390Z,0.63
2023-03-19T11:19:52.672Z,0.7
2023-03-19T11:22:23.031Z,0.74
2023-03-19T11:24:53.690Z,0.7
2023-03-19T11:27:24.160Z,0.72
2023-03-19T11:29:57.651Z,0.69
2023-03-19T11:32:25.004Z,0.67
2023-03-19T11:34:54.993Z,0.71
2023-03-19T11:37:25.226Z,0.69
2023-03-19T11:39:55.869Z,0.7
2023-03-19T11:42:26.428Z,0.66
2023-03-19T11:44:56.808Z,0.71
2023-03-19T11:47:27.783Z,0.74
2023-03-19T11:49:57.430Z,0.71
2023-03-19T11:52:28.095Z,0.68
2023-03-19T11:54:58.532Z,0.64
2023-03-19T11:57:29.015Z,0.61
2023-03-19T11:59:59.489Z,0.66
2023-03-19T12:02:29.659Z,0.61
2023-03-19T12:05:00.103Z,0.67
2023-03-19T12:07:30.116Z,0.6
2023-03-19T12:10:00.538Z,0.59
2023-03-19T12:12:31.013Z,0.62
2023-03-19T12:15:00.979Z,0.63
2023-03-19T12:17:31.412Z,0.61
2023-03-19T12:20:01.999Z,0.56
2023-03-19T12:22:32.242Z,0.57
2023-03-19T12:25:02.633Z,0.6
2023-03-19T12:27:33.049Z,0.56
2023-03-19T12:30:03.205Z,0.59
2023-03-19T12:32:33.682Z,0.58
2023-03-19T12:35:03.983Z,0.59
2023-03-19T12:37:34.199Z,0.61
2023-03-19T12:40:04.516Z,0.57
2023-03-19T12:42:34.997Z,0.56
2023-03-19T12:45:05.307Z,0.5
2023-03-19T12:47:35.727Z,0.51
2023-03-19T12:50:06.125Z,0.49
2023-03-19T12:52:36.169Z,0.5
2023-03-19T12:55:06.274Z,0.49
2023-03-19T12:57:36.699Z,0.53
2023-03-19T13:00:06.815Z,0.5
2023-03-19T13:02:36.862Z,0.59
2023-03-19T13:05:07.248Z,0.58
2023-03-19T13:07:37.576Z,0.5
2023-03-19T13:10:07.665Z,0.46
2023-03-19T13:12:38.059Z,0.48
2023-03-19T13:15:08.445Z,0.46
2023-03-19T13:17:38.595Z,0.46
2023-03-19T13:20:09.085Z,0.47
2023-03-19T13:22:39.486Z,0.51
2023-03-19T13:25:09.910Z,0.46
2023-03-19T13:27:40.248Z,0.48
2023-03-19T13:30:10.731Z,0.48
2023-03-19T13:32:41.089Z,0.45
2023-03-19T13:35:11.415Z,0.52
2023-03-19T13:37:41.836Z,0.52
2023-03-19T13:40:12.293Z,0.49
2023-03-19T13:42:42.680Z,0.47
2023-03-19T13:45:12.953Z,0.51
2023-03-19T13:47:43.356Z,0.44
2023-03-19T13:50:13.874Z,0.38
2023-03-19T13:52:44.062Z,0.42
2023-03-19T13:55:14.428Z,0.46
2023-03-19T13:57:44.791Z,0.48
2023-03-19T14:00:15.150Z,0.46
2023-03-19T14:02:45.523Z,0.38
2023-03-19T14:05:15.924Z,0.45
2023-03-19T14:07:46.219Z,0.41
2023-03-19T14:10:16.590Z,0.41
2023-03-19T14:12:46.938Z,0.41
2023-03-19T14:15:18.067Z,0.39
2023-03-19T14:17:47.658Z,0.48
2023-03-19T14:20:22.224Z,0.51
2023-03-19T14:22:48.363Z,0.42
2023-03-19T14:25:18.732Z,0.41
2023-03-19T14:27:49.169Z,0.45
2023-03-19T14:30:19.481Z,0.47
2023-03-19T14:32:49.849Z,0.41
2023-03-19T14:35:20.288Z,0.42
2023-03-19T14:37:50.230Z,0.41
2023-03-19T14:40:20.567Z,0.39
2023-03-19T14:42:50.936Z,0.42
2023-03-19T14:45:21.310Z,0.41
2023-03-19T14:47:51.707Z,0.39
2023-03-19T14:50:22.075Z,0.41
2023-03-19T14:52:52.561Z,0.41
2023-03-19T14:55:22.857Z,0.41
2023-03-19T14:57:53.254Z,0.39
2023-03-19T15:00:23.619Z,0.4
2023-03-19T15:02:54.077Z,0.43
2023-03-19T15:05:24.374Z,0.42
2023-03-19T15:07:54.746Z,0.44
2023-03-19T15:10:25.186Z,0.39
2023-03-19T15:12:55.486Z,0.44
2023-03-19T15:15:25.927Z,0.43
2023-03-19T15:18:03.486Z,0.46
2023-03-19T15:20:26.581Z,0.42
2023-03-19T15:22:56.951Z,0.39
2023-03-19T15:25:27.306Z,0.43
2023-03-19T15:27:57.670Z,0.44
2023-03-19T15:30:28.865Z,0.46
2023-03-19T15:33:12.051Z,0.5
2023-03-19T15:35:28.740Z,0.39
2023-03-19T15:37:59.115Z,0.41
2023-03-19T15:40:29.474Z,0.39
2023-03-19T15:42:59.833Z,0.42
2023-03-19T15:45:30.243Z,0.4
2023-03-19T15:48:00.594Z,0.41
2023-03-19T15:50:31.106Z,0.44
2023-03-19T15:53:01.317Z,0.41
2023-03-19T15:55:31.683Z,0.44
2023-03-19T15:58:02.076Z,0.41
2023-03-19T16:00:32.434Z,0.4
2023-03-19T16:03:02.989Z,0.4
2023-03-19T16:05:33.234Z,0.42
2023-03-19T16:08:03.338Z,0.42
2023-03-19T16:10:34.144Z,0.48
2023-03-19T16:13:04.142Z,0.48
2023-03-19T16:15:34.641Z,0.47
2023-03-19T16:18:04.948Z,0.45
2023-03-19T16:20:35.580Z,0.44
2023-03-19T16:23:05.720Z,0.45
2023-03-19T16:25:36.506Z,0.52
2023-03-19T16:28:06.526Z,0.48
2023-03-19T16:30:37.366Z,0.45
2023-03-19T16:33:07.410Z,0.51
2023-03-19T16:35:37.609Z,0.49
2023-03-19T16:38:07.592Z,0.5
2023-03-19T16:40:37.948Z,0.54
2023-03-19T16:43:08.663Z,0.57
2023-03-19T16:45:39.012Z,0.58
2023-03-19T16:48:09.171Z,0.6
2023-03-19T16:50:39.522Z,0.6
2023-03-19T16:53:09.693Z,0.64
2023-03-19T16:55:40.407Z,0.65
2023-03-19T16:58:10.503Z,0.72
2023-03-19T17:00:40.584Z,0.77
2023-03-19T17:03:11.090Z,0.8
2023-03-19T17:05:41.887Z,0.83
2023-03-19T17:08:12.624Z,0.88
2023-03-19T17:10:42.769Z,0.88
2023-03-19T17:13:12.904Z,0.9
2023-03-19T17:15:43.584Z,0.88
2023-03-19T17:18:14.210Z,0.9
2023-03-19T17:20:44.570Z,0.87
2023-03-19T17:23:15.186Z,0.86
2023-03-19T17:25:45.598Z,0.86
2023-03-19T17:28:16.110Z,0.9
2023-03-19T17:30:46.786Z,0.9
2023-03-19T17:33:17.001Z,0.88
2023-03-19T17:35:47.538Z,0.87
2023-03-19T17:38:18.199Z,0.88
2023-03-19T17:40:48.516Z,0.85
2023-03-19T17:43:19.339Z,0.85
2023-03-19T17:45:49.900Z,0.84
2023-03-19T17:48:20.258Z,0.83
2023-03-19T17:50:50.721Z,0.83
2023-03-19T17:53:21.608Z,0.85
2023-03-19T17:55:52.188Z,0.87
2023-03-19T17:58:22.344Z,0.86
2023-03-19T18:00:52.672Z,0.85
2023-03-19T18:03:23.262Z,0.83
2023-03-19T18:05:53.462Z,0.86
2023-03-19T18:08:24.339Z,0.87
2023-03-19T18:10:55.103Z,0.88
2023-03-19T18:13:25.120Z,0.84
2023-03-19T18:15:55.906Z,0.84
2023-03-19T18:18:26.652Z,0.88
2023-03-19T18:20:59.488Z,0.83
2023-03-19T18:23:28.398Z,0.84
2023-03-19T18:25:59.235Z,0.86
2023-03-19T18:28:29.625Z,0.85
2023-03-19T18:30:59.708Z,0.87
2023-03-19T18:33:30.468Z,0.88
2023-03-19T18:36:00.514Z,0.87
2023-03-19T18:38:31.053Z,0.89
2023-03-19T18:41:01.538Z,0.87
2023-03-19T18:43:31.905Z,0.9
2023-03-19T18:46:01.992Z,0.96
2023-03-19T18:48:32.160Z,0.96
2023-03-19T18:51:02.682Z,0.91
2023-03-19T18:53:33.167Z,0.89
2023-03-19T18:56:03.397Z,0.93
2023-03-19T18:58:33.914Z,0.87
2023-03-19T19:01:04.265Z,0.87
2023-03-19T19:03:34.729Z,0.89
2023-03-19T19:06:05.289Z,0.89
2023-03-19T19:08:35.801Z,0.87
2023-03-19T19:11:06.404Z,0.89
2023-03-19T19:13:53.374Z,0.88
2023-03-19T19:16:07.346Z,0.86
2023-03-19T19:18:38.189Z,0.86
2023-03-19T19:21:08.638Z,0.84
2023-03-19T19:23:38.754Z,0.86
2023-03-19T19:26:08.976Z,0.88
2023-03-19T19:28:41.395Z,0.86
2023-03-19T19:31:09.841Z,0.86
2023-03-19T19:33:39.881Z,0.85
2023-03-19T19:36:10.471Z,0.86
2023-03-19T19:38:40.672Z,0.89
2023-03-19T19:41:10.911Z,0.94
2023-03-19T19:43:41.750Z,0.9
2023-03-19T19:46:11.892Z,0.94
2023-03-19T19:48:42.730Z,0.93
2023-03-19T19:51:12.872Z,0.87
2023-03-19T19:53:43.161Z,0.86
2023-03-19T19:56:13.595Z,0.88
2023-03-19T19:58:44.205Z,0.9
2023-03-19T20:01:14.284Z,0.9
2023-03-19T20:03:44.529Z,0.85
2023-03-19T20:06:15.180Z,0.88
2023-03-19T20:08:45.751Z,0.91
2023-03-19T20:11:15.970Z,0.89
2023-03-19T20:13:45.996Z,0.9
2023-03-19T20:16:16.422Z,0.91
2023-03-19T20:18:47.105Z,0.95
2023-03-19T20:21:17.359Z,0.91
2023-03-19T20:23:48.109Z,0.92
2023-03-19T20:26:18.401Z,0.93
2023-03-19T20:28:48.647Z,0.91
2023-03-19T20:31:18.900Z,0.95
2023-03-19T20:33:48.910Z,0.92
2023-03-19T20:36:19.675Z,0.91
2023-03-19T20:38:50.410Z,0.94
2023-03-19T20:41:20.730Z,0.94
2023-03-19T20:43:51.142Z,0.95
2023-03-19T20:46:21.704Z,0.97
2023-03-19T20:48:51.904Z,0.91
2023-03-19T20:51:22.340Z,0.94
2023-03-19T20:53:53.067Z,0.95
2023-03-19T20:56:23.422Z,0.94
2023-03-19T20:58:54.148Z,0.91
2023-03-19T21:01:24.923Z,0.93
2023-03-19T21:03:55.763Z,0.93
2023-03-19T21:06:26.111Z,0.92
2023-03-19T21:08:56.352Z,0.96
2023-03-19T21:11:26.586Z,0.95
2023-03-19T21:13:57.120Z,0.91
2023-03-19T21:16:27.159Z,0.99
2023-03-19T21:18:58.008Z,1
2023-03-19T21:21:28.674Z,1
2023-03-19T21:23:58.736Z,1.04
2023-03-19T21:26:29.477Z,1.03
2023-03-19T21:28:59.965Z,1.03
2023-03-19T21:31:30.825Z,0.98
2023-03-19T21:34:01.369Z,1.07
2023-03-19T21:36:31.548Z,1.09
2023-03-19T21:39:01.821Z,1.01
2023-03-19T21:41:32.312Z,0.99
2023-03-19T21:44:02.660Z,0.98
2023-03-19T21:46:32.857Z,0.97
2023-03-19T21:49:03.063Z,0.93
2023-03-19T21:51:33.121Z,0.89
2023-03-19T21:54:03.657Z,0.88
2023-03-19T21:56:33.755Z,0.87
2023-03-19T21:59:04.129Z,0.87
2023-03-19T22:01:34.436Z,0.85
2023-03-19T22:04:05.213Z,0.88
2023-03-19T22:06:35.211Z,0.88
2023-03-19T22:09:05.704Z,0.88
2023-03-19T22:11:36.502Z,0.82
2023-03-19T22:14:07.170Z,0.85
2023-03-19T22:16:37.398Z,0.83
2023-03-19T22:19:07.439Z,0.87
2023-03-19T22:21:38.161Z,0.93
2023-03-19T22:24:08.438Z,0.88
2023-03-19T22:26:38.450Z,0.87
2023-03-19T22:29:08.935Z,0.9
2023-03-19T22:31:39.391Z,0.95
2023-03-19T22:34:09.479Z,0.9
2023-03-19T22:36:39.522Z,0.87
2023-03-19T22:39:09.960Z,0.89
2023-03-19T22:41:40.046Z,0.88
2023-03-19T22:44:10.261Z,0.9
2023-03-19T22:46:40.618Z,0.89
2023-03-19T22:49:11.491Z,0.89
2023-03-19T22:51:41.950Z,0.88
2023-03-19T22:54:11.975Z,0.8
2023-03-19T22:56:42.470Z,0.82
2023-03-19T22:59:13.320Z,0.83
2023-03-19T23:01:43.861Z,0.89
2023-03-19T23:04:14.147Z,0.81
2023-03-19T23:06:44.356Z,0.84
2023-03-19T23:09:14.659Z,0.87
2023-03-19T23:11:45.025Z,1.07
2023-03-19T23:14:27.803Z,0.94
2023-03-19T23:16:45.939Z,0.89
2023-03-19T23:19:15.904Z,0.84
2023-03-19T23:21:46.451Z,0.79
2023-03-19T23:24:16.559Z,0.85
2023-03-19T23:26:47.257Z,0.8
2023-03-19T23:29:17.946Z,0.82
2023-03-19T23:31:48.573Z,0.79
2023-03-19T23:34:19.032Z,0.84
2023-03-19T23:36:49.262Z,0.81
2023-03-19T23:39:19.435Z,0.86
2023-03-19T23:41:49.449Z,0.87
2023-03-19T23:44:19.764Z,0.83
2023-03-19T23:46:50.314Z,0.82
2023-03-19T23:49:20.459Z,0.83
2023-03-19T23:51:51.187Z,0.87
2023-03-19T23:54:22.109Z,0.84
2023-03-19T23:56:52.845Z,0.87
2023-03-19T23:59:23.161Z,0.86
